sensor_id;sensor_type;location;lat;lon;timestamp;P1;durP1;ratioP1;P2;durP2;ratioP2
10162;SDS011;5123;52.556;13.384;2023-04-30T00:01:06;2.90;;;2.20;;
10162;SDS011;5123;52.556;13.384;2023-04-30T00:03:42;2.83;;;2.53;;
10162;SDS011;5123;52.556;13.384;2023-04-30T00:06:19;4.13;;;2.40;;
10162;SDS011;5123;52.556;13.384;2023-04-30T00:08:51;3.67;;;2.13;;
10162;SDS011;5123;52.556;13.384;2023-04-30T00:11:24;7.60;;;2.53;;
10162;SDS011;5123;52.556;13.384;2023-04-30T00:13:57;5.03;;;2.47;;
10162;SDS011;5123;52.556;13.384;2023-04-30T00:16:30;3.23;;;2.10;;
10162;SDS011;5123;52.556;13.384;2023-04-30T00:19:04;5.90;;;2.40;;
10162;SDS011;5123;52.556;13.384;2023-04-30T00:21:37;6.93;;;2.87;;
10162;SDS011;5123;52.556;13.384;2023-04-30T00:24:10;8.43;;;2.30;;
10162;SDS011;5123;52.556;13.384;2023-04-30T00:26:45;8.20;;;2.20;;
10162;SDS011;5123;52.556;13.384;2023-04-30T00:29:18;7.27;;;2.63;;
10162;SDS011;5123;52.556;13.384;2023-04-30T00:31:51;5.07;;;2.70;;
10162;SDS011;5123;52.556;13.384;2023-04-30T00:34:25;8.03;;;2.50;;
10162;SDS011;5123;52.556;13.384;2023-04-30T00:36:58;7.67;;;2.93;;
10162;SDS011;5123;52.556;13.384;2023-04-30T00:39:31;5.40;;;2.40;;
10162;SDS011;5123;52.556;13.384;2023-04-30T00:42:03;6.27;;;2.30;;
10162;SDS011;5123;52.556;13.384;2023-04-30T00:44:36;5.77;;;2.30;;
10162;SDS011;5123;52.556;13.384;2023-04-30T00:47:09;3.13;;;2.00;;
10162;SDS011;5123;52.556;13.384;2023-04-30T00:49:43;5.63;;;2.60;;
10162;SDS011;5123;52.556;13.384;2023-04-30T00:52:19;4.83;;;2.17;;
10162;SDS011;5123;52.556;13.384;2023-04-30T00:54:52;5.80;;;2.50;;
10162;SDS011;5123;52.556;13.384;2023-04-30T00:57:25;4.93;;;2.30;;
10162;SDS011;5123;52.556;13.384;2023-04-30T00:59:58;5.50;;;2.70;;
10162;SDS011;5123;52.556;13.384;2023-04-30T01:02:31;4.13;;;2.20;;
10162;SDS011;5123;52.556;13.384;2023-04-30T01:05:06;6.77;;;2.47;;
10162;SDS011;5123;52.556;13.384;2023-04-30T01:07:39;3.70;;;2.23;;
10162;SDS011;5123;52.556;13.384;2023-04-30T01:10:15;2.97;;;2.20;;
10162;SDS011;5123;52.556;13.384;2023-04-30T01:12:50;5.37;;;2.93;;
10162;SDS011;5123;52.556;13.384;2023-04-30T01:15:26;4.37;;;2.40;;
10162;SDS011;5123;52.556;13.384;2023-04-30T01:18:02;6.73;;;2.03;;
10162;SDS011;5123;52.556;13.384;2023-04-30T01:20:37;8.40;;;2.97;;
10162;SDS011;5123;52.556;13.384;2023-04-30T01:23:13;4.33;;;2.57;;
10162;SDS011;5123;52.556;13.384;2023-04-30T01:25:57;5.50;;;2.67;;
10162;SDS011;5123;52.556;13.384;2023-04-30T01:28:33;4.27;;;2.53;;
10162;SDS011;5123;52.556;13.384;2023-04-30T01:31:10;4.60;;;2.43;;
10162;SDS011;5123;52.556;13.384;2023-04-30T01:33:43;5.30;;;2.90;;
10162;SDS011;5123;52.556;13.384;2023-04-30T01:36:29;6.47;;;3.30;;
10162;SDS011;5123;52.556;13.384;2023-04-30T01:41:57;6.97;;;3.17;;
10162;SDS011;5123;52.556;13.384;2023-04-30T01:44:40;6.97;;;2.63;;
10162;SDS011;5123;52.556;13.384;2023-04-30T01:47:17;8.57;;;3.07;;
10162;SDS011;5123;52.556;13.384;2023-04-30T01:49:56;8.33;;;2.90;;
10162;SDS011;5123;52.556;13.384;2023-04-30T01:52:35;6.10;;;2.73;;
10162;SDS011;5123;52.556;13.384;2023-04-30T01:55:12;10.33;;;3.00;;
10162;SDS011;5123;52.556;13.384;2023-04-30T01:57:48;4.63;;;2.80;;
10162;SDS011;5123;52.556;13.384;2023-04-30T02:00:26;7.33;;;3.50;;
10162;SDS011;5123;52.556;13.384;2023-04-30T02:02:59;6.30;;;3.10;;
10162;SDS011;5123;52.556;13.384;2023-04-30T02:05:32;7.33;;;3.07;;
10162;SDS011;5123;52.556;13.384;2023-04-30T02:08:05;6.97;;;2.80;;
10162;SDS011;5123;52.556;13.384;2023-04-30T02:10:39;4.77;;;2.43;;
10162;SDS011;5123;52.556;13.384;2023-04-30T02:13:12;5.70;;;2.97;;
10162;SDS011;5123;52.556;13.384;2023-04-30T02:15:49;8.67;;;2.77;;
10162;SDS011;5123;52.556;13.384;2023-04-30T02:18:24;7.27;;;3.30;;
10162;SDS011;5123;52.556;13.384;2023-04-30T02:20:57;7.80;;;3.33;;
10162;SDS011;5123;52.556;13.384;2023-04-30T02:23:30;7.30;;;3.07;;
10162;SDS011;5123;52.556;13.384;2023-04-30T02:26:03;9.43;;;2.90;;
10162;SDS011;5123;52.556;13.384;2023-04-30T02:28:36;7.60;;;3.20;;
10162;SDS011;5123;52.556;13.384;2023-04-30T02:31:10;6.47;;;3.20;;
10162;SDS011;5123;52.556;13.384;2023-04-30T02:33:43;8.03;;;3.17;;
10162;SDS011;5123;52.556;13.384;2023-04-30T02:36:16;4.67;;;2.90;;
10162;SDS011;5123;52.556;13.384;2023-04-30T02:38:49;9.97;;;3.40;;
10162;SDS011;5123;52.556;13.384;2023-04-30T02:41:21;5.77;;;3.13;;
10162;SDS011;5123;52.556;13.384;2023-04-30T02:43:54;7.13;;;3.33;;
10162;SDS011;5123;52.556;13.384;2023-04-30T02:46:31;5.90;;;3.37;;
10162;SDS011;5123;52.556;13.384;2023-04-30T02:49:04;6.40;;;3.33;;
10162;SDS011;5123;52.556;13.384;2023-04-30T02:51:37;5.77;;;3.40;;
10162;SDS011;5123;52.556;13.384;2023-04-30T02:54:10;6.03;;;2.97;;
10162;SDS011;5123;52.556;13.384;2023-04-30T02:56:43;6.50;;;3.40;;
10162;SDS011;5123;52.556;13.384;2023-04-30T02:59:16;7.37;;;3.20;;
10162;SDS011;5123;52.556;13.384;2023-04-30T03:01:50;6.30;;;2.90;;
10162;SDS011;5123;52.556;13.384;2023-04-30T03:04:23;7.47;;;3.50;;
10162;SDS011;5123;52.556;13.384;2023-04-30T03:06:56;7.00;;;3.10;;
10162;SDS011;5123;52.556;13.384;2023-04-30T03:09:29;7.27;;;3.40;;
10162;SDS011;5123;52.556;13.384;2023-04-30T03:12:09;6.67;;;3.27;;
10162;SDS011;5123;52.556;13.384;2023-04-30T03:14:41;3.73;;;2.80;;
10162;SDS011;5123;52.556;13.384;2023-04-30T03:17:17;7.17;;;2.93;;
10162;SDS011;5123;52.556;13.384;2023-04-30T03:19:50;9.57;;;3.10;;
10162;SDS011;5123;52.556;13.384;2023-04-30T03:22:25;4.50;;;2.57;;
10162;SDS011;5123;52.556;13.384;2023-04-30T03:24:58;5.03;;;3.13;;
10162;SDS011;5123;52.556;13.384;2023-04-30T03:27:30;6.93;;;3.50;;
10162;SDS011;5123;52.556;13.384;2023-04-30T03:30:04;5.57;;;2.90;;
10162;SDS011;5123;52.556;13.384;2023-04-30T03:32:39;8.67;;;3.33;;
10162;SDS011;5123;52.556;13.384;2023-04-30T03:35:11;5.00;;;3.30;;
10162;SDS011;5123;52.556;13.384;2023-04-30T03:37:44;5.57;;;3.00;;
10162;SDS011;5123;52.556;13.384;2023-04-30T03:40:17;6.67;;;3.27;;
10162;SDS011;5123;52.556;13.384;2023-04-30T03:42:50;7.43;;;3.70;;
10162;SDS011;5123;52.556;13.384;2023-04-30T03:45:23;11.00;;;3.27;;
10162;SDS011;5123;52.556;13.384;2023-04-30T03:47:57;7.87;;;3.93;;
10162;SDS011;5123;52.556;13.384;2023-04-30T03:50:30;4.70;;;3.43;;
10162;SDS011;5123;52.556;13.384;2023-04-30T03:53:03;6.70;;;3.40;;
10162;SDS011;5123;52.556;13.384;2023-04-30T03:55:36;4.90;;;3.53;;
10162;SDS011;5123;52.556;13.384;2023-04-30T03:58:09;7.30;;;3.33;;
10162;SDS011;5123;52.556;13.384;2023-04-30T04:00:42;5.80;;;3.57;;
10162;SDS011;5123;52.556;13.384;2023-04-30T04:03:17;8.00;;;3.70;;
10162;SDS011;5123;52.556;13.384;2023-04-30T04:05:50;8.73;;;3.47;;
10162;SDS011;5123;52.556;13.384;2023-04-30T04:08:27;6.93;;;3.40;;
10162;SDS011;5123;52.556;13.384;2023-04-30T04:11:01;10.03;;;3.97;;
10162;SDS011;5123;52.556;13.384;2023-04-30T04:13:34;7.43;;;3.70;;
10162;SDS011;5123;52.556;13.384;2023-04-30T04:16:08;6.27;;;3.60;;
10162;SDS011;5123;52.556;13.384;2023-04-30T04:18:43;5.73;;;3.50;;
10162;SDS011;5123;52.556;13.384;2023-04-30T04:21:16;4.40;;;3.30;;
10162;SDS011;5123;52.556;13.384;2023-04-30T04:23:48;5.77;;;3.40;;
10162;SDS011;5123;52.556;13.384;2023-04-30T04:26:21;6.97;;;3.43;;
10162;SDS011;5123;52.556;13.384;2023-04-30T04:28:56;4.20;;;3.50;;
10162;SDS011;5123;52.556;13.384;2023-04-30T04:31:29;4.97;;;3.40;;
10162;SDS011;5123;52.556;13.384;2023-04-30T04:34:05;6.87;;;4.40;;
10162;SDS011;5123;52.556;13.384;2023-04-30T04:36:38;6.90;;;3.90;;
10162;SDS011;5123;52.556;13.384;2023-04-30T04:39:18;7.03;;;3.30;;
10162;SDS011;5123;52.556;13.384;2023-04-30T04:41:52;11.93;;;3.90;;
10162;SDS011;5123;52.556;13.384;2023-04-30T04:44:24;6.60;;;3.40;;
10162;SDS011;5123;52.556;13.384;2023-04-30T04:46:57;12.03;;;4.67;;
10162;SDS011;5123;52.556;13.384;2023-04-30T04:49:31;10.33;;;3.70;;
10162;SDS011;5123;52.556;13.384;2023-04-30T04:52:04;6.73;;;3.93;;
10162;SDS011;5123;52.556;13.384;2023-04-30T04:54:37;6.70;;;3.83;;
10162;SDS011;5123;52.556;13.384;2023-04-30T04:57:10;5.03;;;3.73;;
10162;SDS011;5123;52.556;13.384;2023-04-30T04:59:43;13.70;;;4.20;;
10162;SDS011;5123;52.556;13.384;2023-04-30T05:02:16;6.70;;;3.50;;
10162;SDS011;5123;52.556;13.384;2023-04-30T05:04:53;5.83;;;4.13;;
10162;SDS011;5123;52.556;13.384;2023-04-30T05:07:29;5.63;;;3.70;;
10162;SDS011;5123;52.556;13.384;2023-04-30T05:10:13;7.07;;;3.10;;
10162;SDS011;5123;52.556;13.384;2023-04-30T05:12:47;7.17;;;3.47;;
10162;SDS011;5123;52.556;13.384;2023-04-30T05:15:19;9.63;;;4.73;;
10162;SDS011;5123;52.556;13.384;2023-04-30T05:17:54;4.77;;;3.53;;
10162;SDS011;5123;52.556;13.384;2023-04-30T05:20:31;9.60;;;3.97;;
10162;SDS011;5123;52.556;13.384;2023-04-30T05:23:04;8.90;;;3.83;;
10162;SDS011;5123;52.556;13.384;2023-04-30T05:25:37;10.57;;;4.23;;
10162;SDS011;5123;52.556;13.384;2023-04-30T05:28:10;9.30;;;4.17;;
10162;SDS011;5123;52.556;13.384;2023-04-30T05:30:44;5.07;;;3.83;;
10162;SDS011;5123;52.556;13.384;2023-04-30T05:33:19;6.77;;;3.70;;
10162;SDS011;5123;52.556;13.384;2023-04-30T05:35:53;8.27;;;4.33;;
10162;SDS011;5123;52.556;13.384;2023-04-30T05:38:26;10.27;;;4.13;;
10162;SDS011;5123;52.556;13.384;2023-04-30T05:41:01;6.47;;;4.33;;
10162;SDS011;5123;52.556;13.384;2023-04-30T05:43:34;6.73;;;4.13;;
10162;SDS011;5123;52.556;13.384;2023-04-30T05:46:07;7.70;;;4.37;;
10162;SDS011;5123;52.556;13.384;2023-04-30T05:48:40;10.80;;;4.23;;
10162;SDS011;5123;52.556;13.384;2023-04-30T05:51:14;7.90;;;3.40;;
10162;SDS011;5123;52.556;13.384;2023-04-30T05:53:47;9.00;;;3.27;;
10162;SDS011;5123;52.556;13.384;2023-04-30T05:56:20;12.87;;;3.97;;
10162;SDS011;5123;52.556;13.384;2023-04-30T05:58:54;7.10;;;4.20;;
10162;SDS011;5123;52.556;13.384;2023-04-30T06:01:27;7.57;;;2.97;;
10162;SDS011;5123;52.556;13.384;2023-04-30T06:04:03;3.57;;;2.87;;
10162;SDS011;5123;52.556;13.384;2023-04-30T06:06:38;8.47;;;3.50;;
10162;SDS011;5123;52.556;13.384;2023-04-30T06:09:11;8.00;;;4.57;;
10162;SDS011;5123;52.556;13.384;2023-04-30T06:11:43;9.07;;;4.57;;
10162;SDS011;5123;52.556;13.384;2023-04-30T06:14:20;7.30;;;3.50;;
10162;SDS011;5123;52.556;13.384;2023-04-30T06:16:57;8.53;;;4.17;;
10162;SDS011;5123;52.556;13.384;2023-04-30T06:19:30;8.23;;;3.40;;
10162;SDS011;5123;52.556;13.384;2023-04-30T06:22:05;7.70;;;3.77;;
10162;SDS011;5123;52.556;13.384;2023-04-30T06:24:38;7.07;;;4.17;;
10162;SDS011;5123;52.556;13.384;2023-04-30T06:27:11;9.10;;;4.50;;
10162;SDS011;5123;52.556;13.384;2023-04-30T06:29:44;5.43;;;3.77;;
10162;SDS011;5123;52.556;13.384;2023-04-30T06:32:17;8.30;;;4.20;;
10162;SDS011;5123;52.556;13.384;2023-04-30T06:34:50;4.47;;;2.93;;
10162;SDS011;5123;52.556;13.384;2023-04-30T06:37:24;7.83;;;3.97;;
10162;SDS011;5123;52.556;13.384;2023-04-30T06:39:57;9.43;;;3.40;;
10162;SDS011;5123;52.556;13.384;2023-04-30T06:42:29;5.50;;;3.50;;
10162;SDS011;5123;52.556;13.384;2023-04-30T06:45:05;6.57;;;3.67;;
10162;SDS011;5123;52.556;13.384;2023-04-30T06:47:38;8.17;;;3.87;;
10162;SDS011;5123;52.556;13.384;2023-04-30T06:50:13;4.67;;;3.37;;
10162;SDS011;5123;52.556;13.384;2023-04-30T06:52:47;12.83;;;4.23;;
10162;SDS011;5123;52.556;13.384;2023-04-30T06:55:20;8.60;;;3.43;;
10162;SDS011;5123;52.556;13.384;2023-04-30T06:57:53;10.93;;;3.67;;
10162;SDS011;5123;52.556;13.384;2023-04-30T07:00:28;4.03;;;3.17;;
10162;SDS011;5123;52.556;13.384;2023-04-30T07:03:03;4.93;;;2.83;;
10162;SDS011;5123;52.556;13.384;2023-04-30T07:05:36;10.20;;;4.30;;
10162;SDS011;5123;52.556;13.384;2023-04-30T07:08:10;9.43;;;3.73;;
10162;SDS011;5123;52.556;13.384;2023-04-30T07:10:43;7.67;;;3.40;;
10162;SDS011;5123;52.556;13.384;2023-04-30T07:13:16;8.73;;;4.00;;
10162;SDS011;5123;52.556;13.384;2023-04-30T07:15:49;8.30;;;4.00;;
10162;SDS011;5123;52.556;13.384;2023-04-30T07:18:23;10.80;;;4.37;;
10162;SDS011;5123;52.556;13.384;2023-04-30T07:20:56;8.10;;;3.73;;
10162;SDS011;5123;52.556;13.384;2023-04-30T07:23:30;5.23;;;3.03;;
10162;SDS011;5123;52.556;13.384;2023-04-30T07:26:03;6.97;;;3.30;;
10162;SDS011;5123;52.556;13.384;2023-04-30T07:28:36;7.73;;;3.60;;
10162;SDS011;5123;52.556;13.384;2023-04-30T07:31:09;7.53;;;3.10;;
10162;SDS011;5123;52.556;13.384;2023-04-30T07:33:42;6.53;;;3.13;;
10162;SDS011;5123;52.556;13.384;2023-04-30T07:36:15;6.87;;;3.37;;
10162;SDS011;5123;52.556;13.384;2023-04-30T07:38:49;6.07;;;3.83;;
10162;SDS011;5123;52.556;13.384;2023-04-30T07:41:23;5.97;;;3.47;;
10162;SDS011;5123;52.556;13.384;2023-04-30T07:43:56;5.63;;;3.47;;
10162;SDS011;5123;52.556;13.384;2023-04-30T07:46:30;10.13;;;3.60;;
10162;SDS011;5123;52.556;13.384;2023-04-30T07:49:03;11.27;;;4.13;;
10162;SDS011;5123;52.556;13.384;2023-04-30T07:51:38;12.37;;;3.60;;
10162;SDS011;5123;52.556;13.384;2023-04-30T07:54:14;7.70;;;3.60;;
10162;SDS011;5123;52.556;13.384;2023-04-30T07:56:53;8.07;;;3.30;;
10162;SDS011;5123;52.556;13.384;2023-04-30T07:59:26;6.60;;;3.70;;
10162;SDS011;5123;52.556;13.384;2023-04-30T08:01:59;2.90;;;2.37;;
10162;SDS011;5123;52.556;13.384;2023-04-30T08:04:32;6.33;;;2.80;;
10162;SDS011;5123;52.556;13.384;2023-04-30T08:07:06;7.87;;;3.30;;
10162;SDS011;5123;52.556;13.384;2023-04-30T08:09:40;9.37;;;3.80;;
10162;SDS011;5123;52.556;13.384;2023-04-30T08:12:13;5.87;;;3.13;;
10162;SDS011;5123;52.556;13.384;2023-04-30T08:14:46;7.63;;;3.53;;
10162;SDS011;5123;52.556;13.384;2023-04-30T08:17:19;7.87;;;2.97;;
10162;SDS011;5123;52.556;13.384;2023-04-30T08:19:51;6.77;;;3.57;;
10162;SDS011;5123;52.556;13.384;2023-04-30T08:22:25;6.23;;;3.67;;
10162;SDS011;5123;52.556;13.384;2023-04-30T08:24:59;8.60;;;3.63;;
10162;SDS011;5123;52.556;13.384;2023-04-30T08:27:33;8.07;;;3.23;;
10162;SDS011;5123;52.556;13.384;2023-04-30T08:30:06;10.30;;;3.13;;
10162;SDS011;5123;52.556;13.384;2023-04-30T08:32:39;6.70;;;2.97;;
10162;SDS011;5123;52.556;13.384;2023-04-30T08:35:12;5.93;;;2.60;;
10162;SDS011;5123;52.556;13.384;2023-04-30T08:37:49;4.97;;;2.67;;
10162;SDS011;5123;52.556;13.384;2023-04-30T08:40:27;5.93;;;2.87;;
10162;SDS011;5123;52.556;13.384;2023-04-30T08:43:21;6.03;;;2.53;;
10162;SDS011;5123;52.556;13.384;2023-04-30T08:45:54;4.83;;;2.60;;
10162;SDS011;5123;52.556;13.384;2023-04-30T08:48:27;6.63;;;2.73;;
10162;SDS011;5123;52.556;13.384;2023-04-30T08:51:03;4.93;;;2.40;;
10162;SDS011;5123;52.556;13.384;2023-04-30T08:53:36;5.97;;;2.60;;
10162;SDS011;5123;52.556;13.384;2023-04-30T08:56:10;4.53;;;2.80;;
10162;SDS011;5123;52.556;13.384;2023-04-30T08:58:43;3.37;;;2.30;;
10162;SDS011;5123;52.556;13.384;2023-04-30T09:01:16;3.80;;;2.40;;
10162;SDS011;5123;52.556;13.384;2023-04-30T09:03:49;3.33;;;2.00;;
10162;SDS011;5123;52.556;13.384;2023-04-30T09:06:22;3.03;;;1.60;;
10162;SDS011;5123;52.556;13.384;2023-04-30T09:08:55;3.77;;;2.67;;
10162;SDS011;5123;52.556;13.384;2023-04-30T09:11:32;7.63;;;3.13;;
10162;SDS011;5123;52.556;13.384;2023-04-30T09:14:05;4.63;;;2.20;;
10162;SDS011;5123;52.556;13.384;2023-04-30T09:16:44;7.27;;;2.90;;
10162;SDS011;5123;52.556;13.384;2023-04-30T09:19:24;5.30;;;2.40;;
10162;SDS011;5123;52.556;13.384;2023-04-30T09:21:57;4.10;;;2.27;;
10162;SDS011;5123;52.556;13.384;2023-04-30T09:24:44;5.67;;;2.80;;
10162;SDS011;5123;52.556;13.384;2023-04-30T09:27:18;2.23;;;1.30;;
10162;SDS011;5123;52.556;13.384;2023-04-30T09:29:51;4.83;;;2.60;;
10162;SDS011;5123;52.556;13.384;2023-04-30T09:32:27;3.63;;;2.37;;
10162;SDS011;5123;52.556;13.384;2023-04-30T09:34:59;4.77;;;2.30;;
10162;SDS011;5123;52.556;13.384;2023-04-30T09:37:35;2.43;;;2.20;;
10162;SDS011;5123;52.556;13.384;2023-04-30T09:40:09;6.17;;;2.57;;
10162;SDS011;5123;52.556;13.384;2023-04-30T09:45:50;3.83;;;2.30;;
10162;SDS011;5123;52.556;13.384;2023-04-30T09:48:24;4.83;;;2.47;;
10162;SDS011;5123;52.556;13.384;2023-04-30T09:50:58;4.03;;;2.30;;
10162;SDS011;5123;52.556;13.384;2023-04-30T09:53:35;4.17;;;2.47;;
10162;SDS011;5123;52.556;13.384;2023-04-30T09:56:09;3.23;;;2.50;;
10162;SDS011;5123;52.556;13.384;2023-04-30T09:58:43;4.83;;;2.70;;
10162;SDS011;5123;52.556;13.384;2023-04-30T10:01:24;5.07;;;2.50;;
10162;SDS011;5123;52.556;13.384;2023-04-30T10:03:58;7.03;;;2.93;;
10162;SDS011;5123;52.556;13.384;2023-04-30T10:06:31;3.60;;;2.60;;
10162;SDS011;5123;52.556;13.384;2023-04-30T10:09:06;5.03;;;2.83;;
10162;SDS011;5123;52.556;13.384;2023-04-30T10:11:42;3.37;;;2.47;;
10162;SDS011;5123;52.556;13.384;2023-04-30T10:14:15;3.50;;;2.00;;
10162;SDS011;5123;52.556;13.384;2023-04-30T10:16:53;3.90;;;2.37;;
10162;SDS011;5123;52.556;13.384;2023-04-30T10:19:29;2.97;;;2.40;;
10162;SDS011;5123;52.556;13.384;2023-04-30T10:22:02;3.47;;;2.40;;
10162;SDS011;5123;52.556;13.384;2023-04-30T10:24:36;6.43;;;2.80;;
10162;SDS011;5123;52.556;13.384;2023-04-30T10:27:09;4.23;;;2.77;;
10162;SDS011;5123;52.556;13.384;2023-04-30T10:29:45;4.57;;;2.80;;
10162;SDS011;5123;52.556;13.384;2023-04-30T10:32:22;5.37;;;2.63;;
10162;SDS011;5123;52.556;13.384;2023-04-30T10:34:59;7.13;;;3.03;;
10162;SDS011;5123;52.556;13.384;2023-04-30T10:37:38;6.97;;;3.17;;
10162;SDS011;5123;52.556;13.384;2023-04-30T10:40:12;4.63;;;2.30;;
10162;SDS011;5123;52.556;13.384;2023-04-30T10:42:46;4.50;;;2.30;;
10162;SDS011;5123;52.556;13.384;2023-04-30T10:45:21;3.90;;;2.97;;
10162;SDS011;5123;52.556;13.384;2023-04-30T10:48:07;7.47;;;2.83;;
10162;SDS011;5123;52.556;13.384;2023-04-30T10:50:41;6.33;;;2.97;;
10162;SDS011;5123;52.556;13.384;2023-04-30T10:53:17;4.83;;;2.77;;
10162;SDS011;5123;52.556;13.384;2023-04-30T10:55:51;4.07;;;2.10;;
10162;SDS011;5123;52.556;13.384;2023-04-30T10:58:25;3.70;;;2.47;;
10162;SDS011;5123;52.556;13.384;2023-04-30T11:00:59;7.30;;;3.07;;
10162;SDS011;5123;52.556;13.384;2023-04-30T11:03:34;4.50;;;2.70;;
10162;SDS011;5123;52.556;13.384;2023-04-30T11:06:10;5.87;;;3.17;;
10162;SDS011;5123;52.556;13.384;2023-04-30T11:08:44;5.20;;;2.77;;
10162;SDS011;5123;52.556;13.384;2023-04-30T11:11:17;5.23;;;2.93;;
10162;SDS011;5123;52.556;13.384;2023-04-30T11:13:57;7.87;;;3.10;;
10162;SDS011;5123;52.556;13.384;2023-04-30T11:16:33;5.27;;;3.23;;
10162;SDS011;5123;52.556;13.384;2023-04-30T11:19:10;3.27;;;2.50;;
10162;SDS011;5123;52.556;13.384;2023-04-30T11:22:14;5.50;;;2.60;;
10162;SDS011;5123;52.556;13.384;2023-04-30T11:24:50;6.87;;;2.67;;
10162;SDS011;5123;52.556;13.384;2023-04-30T11:27:24;5.53;;;2.80;;
10162;SDS011;5123;52.556;13.384;2023-04-30T11:29:57;5.50;;;2.70;;
10162;SDS011;5123;52.556;13.384;2023-04-30T11:32:33;3.07;;;2.20;;
10162;SDS011;5123;52.556;13.384;2023-04-30T11:35:10;5.30;;;2.60;;
10162;SDS011;5123;52.556;13.384;2023-04-30T11:37:45;5.53;;;2.90;;
10162;SDS011;5123;52.556;13.384;2023-04-30T11:40:19;4.03;;;2.40;;
10162;SDS011;5123;52.556;13.384;2023-04-30T11:42:54;7.20;;;2.30;;
10162;SDS011;5123;52.556;13.384;2023-04-30T11:45:31;4.20;;;2.63;;
10162;SDS011;5123;52.556;13.384;2023-04-30T11:48:04;3.20;;;2.60;;
10162;SDS011;5123;52.556;13.384;2023-04-30T11:50:41;4.80;;;2.30;;
10162;SDS011;5123;52.556;13.384;2023-04-30T11:53:14;2.93;;;2.33;;
10162;SDS011;5123;52.556;13.384;2023-04-30T11:55:48;3.50;;;2.50;;
10162;SDS011;5123;52.556;13.384;2023-04-30T11:58:21;4.70;;;2.53;;
10162;SDS011;5123;52.556;13.384;2023-04-30T12:00:54;2.73;;;2.50;;
10162;SDS011;5123;52.556;13.384;2023-04-30T12:03:39;36.27;;;4.77;;
10162;SDS011;5123;52.556;13.384;2023-04-30T12:06:23;4.75;;;2.80;;
10162;SDS011;5123;52.556;13.384;2023-04-30T12:08:57;4.73;;;2.60;;
10162;SDS011;5123;52.556;13.384;2023-04-30T12:11:32;5.70;;;2.53;;
10162;SDS011;5123;52.556;13.384;2023-04-30T12:14:09;6.10;;;2.73;;
10162;SDS011;5123;52.556;13.384;2023-04-30T12:16:43;4.53;;;2.53;;
10162;SDS011;5123;52.556;13.384;2023-04-30T12:19:20;5.57;;;2.93;;
10162;SDS011;5123;52.556;13.384;2023-04-30T12:21:57;7.47;;;2.87;;
10162;SDS011;5123;52.556;13.384;2023-04-30T12:24:33;6.43;;;3.20;;
10162;SDS011;5123;52.556;13.384;2023-04-30T12:27:17;5.67;;;2.90;;
10162;SDS011;5123;52.556;13.384;2023-04-30T12:29:50;5.83;;;2.80;;
10162;SDS011;5123;52.556;13.384;2023-04-30T12:32:25;4.50;;;2.40;;
10162;SDS011;5123;52.556;13.384;2023-04-30T12:35:00;4.53;;;2.70;;
10162;SDS011;5123;52.556;13.384;2023-04-30T12:37:37;4.90;;;2.80;;
10162;SDS011;5123;52.556;13.384;2023-04-30T12:40:14;4.40;;;2.80;;
10162;SDS011;5123;52.556;13.384;2023-04-30T12:42:47;5.37;;;2.80;;
10162;SDS011;5123;52.556;13.384;2023-04-30T12:48:16;5.87;;;3.10;;
10162;SDS011;5123;52.556;13.384;2023-04-30T12:50:53;7.60;;;2.97;;
10162;SDS011;5123;52.556;13.384;2023-04-30T12:53:28;3.93;;;2.50;;
10162;SDS011;5123;52.556;13.384;2023-04-30T12:56:08;5.10;;;2.53;;
10162;SDS011;5123;52.556;13.384;2023-04-30T12:58:43;4.83;;;2.90;;
10162;SDS011;5123;52.556;13.384;2023-04-30T13:01:21;7.43;;;2.67;;
10162;SDS011;5123;52.556;13.384;2023-04-30T13:03:58;3.67;;;2.50;;
10162;SDS011;5123;52.556;13.384;2023-04-30T13:06:32;5.60;;;2.87;;
10162;SDS011;5123;52.556;13.384;2023-04-30T13:09:07;3.93;;;2.63;;
10162;SDS011;5123;52.556;13.384;2023-04-30T13:11:44;4.57;;;2.70;;
10162;SDS011;5123;52.556;13.384;2023-04-30T13:14:27;6.50;;;3.20;;
10162;SDS011;5123;52.556;13.384;2023-04-30T13:17:04;7.10;;;3.20;;
10162;SDS011;5123;52.556;13.384;2023-04-30T13:22:43;6.73;;;2.93;;
10162;SDS011;5123;52.556;13.384;2023-04-30T13:25:17;3.43;;;2.73;;
10162;SDS011;5123;52.556;13.384;2023-04-30T13:27:51;5.13;;;2.73;;
10162;SDS011;5123;52.556;13.384;2023-04-30T13:30:26;5.07;;;3.17;;
10162;SDS011;5123;52.556;13.384;2023-04-30T13:33:00;4.77;;;2.87;;
10162;SDS011;5123;52.556;13.384;2023-04-30T13:35:34;4.37;;;2.60;;
10162;SDS011;5123;52.556;13.384;2023-04-30T13:38:07;4.07;;;2.40;;
10162;SDS011;5123;52.556;13.384;2023-04-30T13:40:42;4.67;;;2.77;;
10162;SDS011;5123;52.556;13.384;2023-04-30T13:43:16;3.80;;;2.97;;
10162;SDS011;5123;52.556;13.384;2023-04-30T13:45:49;5.43;;;2.53;;
10162;SDS011;5123;52.556;13.384;2023-04-30T13:48:23;5.10;;;3.00;;
10162;SDS011;5123;52.556;13.384;2023-04-30T13:50:56;5.57;;;3.13;;
10162;SDS011;5123;52.556;13.384;2023-04-30T13:53:30;6.57;;;3.23;;
10162;SDS011;5123;52.556;13.384;2023-04-30T13:56:05;6.50;;;3.07;;
10162;SDS011;5123;52.556;13.384;2023-04-30T13:58:38;4.63;;;3.13;;
10162;SDS011;5123;52.556;13.384;2023-04-30T14:01:11;5.57;;;2.27;;
10162;SDS011;5123;52.556;13.384;2023-04-30T14:03:44;5.07;;;2.87;;
10162;SDS011;5123;52.556;13.384;2023-04-30T14:06:19;4.93;;;2.90;;
10162;SDS011;5123;52.556;13.384;2023-04-30T14:08:52;5.40;;;2.83;;
10162;SDS011;5123;52.556;13.384;2023-04-30T14:11:27;9.10;;;2.50;;
10162;SDS011;5123;52.556;13.384;2023-04-30T14:14:00;4.77;;;2.80;;
10162;SDS011;5123;52.556;13.384;2023-04-30T14:16:33;4.50;;;2.60;;
10162;SDS011;5123;52.556;13.384;2023-04-30T14:19:07;4.93;;;2.10;;
10162;SDS011;5123;52.556;13.384;2023-04-30T14:21:40;4.70;;;2.67;;
10162;SDS011;5123;52.556;13.384;2023-04-30T14:24:13;4.40;;;2.70;;
10162;SDS011;5123;52.556;13.384;2023-04-30T14:26:49;4.83;;;2.37;;
10162;SDS011;5123;52.556;13.384;2023-04-30T14:29:24;9.03;;;2.90;;
10162;SDS011;5123;52.556;13.384;2023-04-30T14:31:57;2.87;;;2.23;;
10162;SDS011;5123;52.556;13.384;2023-04-30T14:34:31;4.20;;;2.60;;
10162;SDS011;5123;52.556;13.384;2023-04-30T14:37:04;8.03;;;2.63;;
10162;SDS011;5123;52.556;13.384;2023-04-30T14:39:37;3.97;;;2.57;;
10162;SDS011;5123;52.556;13.384;2023-04-30T14:42:13;5.37;;;2.80;;
10162;SDS011;5123;52.556;13.384;2023-04-30T14:44:49;4.87;;;2.50;;
10162;SDS011;5123;52.556;13.384;2023-04-30T14:47:24;6.53;;;2.70;;
10162;SDS011;5123;52.556;13.384;2023-04-30T14:49:58;8.57;;;3.30;;
10162;SDS011;5123;52.556;13.384;2023-04-30T14:52:32;6.63;;;2.47;;
10162;SDS011;5123;52.556;13.384;2023-04-30T14:55:06;4.43;;;2.37;;
10162;SDS011;5123;52.556;13.384;2023-04-30T14:57:41;4.67;;;2.47;;
10162;SDS011;5123;52.556;13.384;2023-04-30T15:00:15;7.97;;;2.67;;
10162;SDS011;5123;52.556;13.384;2023-04-30T15:02:48;5.80;;;2.37;;
10162;SDS011;5123;52.556;13.384;2023-04-30T15:05:21;5.30;;;2.53;;
10162;SDS011;5123;52.556;13.384;2023-04-30T15:07:54;6.80;;;2.57;;
10162;SDS011;5123;52.556;13.384;2023-04-30T15:10:27;4.87;;;2.83;;
10162;SDS011;5123;52.556;13.384;2023-04-30T15:13:02;7.50;;;2.93;;
10162;SDS011;5123;52.556;13.384;2023-04-30T15:15:35;4.87;;;2.67;;
10162;SDS011;5123;52.556;13.384;2023-04-30T15:18:09;4.03;;;2.67;;
10162;SDS011;5123;52.556;13.384;2023-04-30T15:20:46;4.63;;;2.40;;
10162;SDS011;5123;52.556;13.384;2023-04-30T15:23:20;5.13;;;2.57;;
10162;SDS011;5123;52.556;13.384;2023-04-30T15:25:55;6.27;;;2.50;;
10162;SDS011;5123;52.556;13.384;2023-04-30T15:28:30;2.40;;;2.10;;
10162;SDS011;5123;52.556;13.384;2023-04-30T15:31:03;4.33;;;2.43;;
10162;SDS011;5123;52.556;13.384;2023-04-30T15:33:37;5.33;;;2.90;;
10162;SDS011;5123;52.556;13.384;2023-04-30T15:36:12;5.33;;;2.43;;
10162;SDS011;5123;52.556;13.384;2023-04-30T15:38:45;3.53;;;2.43;;
10162;SDS011;5123;52.556;13.384;2023-04-30T15:41:19;5.47;;;2.53;;
10162;SDS011;5123;52.556;13.384;2023-04-30T15:43:55;4.70;;;2.33;;